Time;durP1;ratioP1;P1;durP2;ratioP2;P2;SDS_P1;SDS_P2;PMS_P1;PMS_P2;Temp;Humidity;BMP_temperature;BMP_pressure;BME280_temperature;BME280_humidity;BME280_pressure;Samples;Min_cycle;Max_cycle;Signal;HPM_P1;HPM_P2
2023/12/04 00:00:39;;;;;;;19.20;9.02;;;-4.20;72.10;;;;;;5013925;28;20537;-75
2023/12/04 00:03:04;;;;;;;21.42;8.73;;;-4.30;72.00;;;;;;5013047;28;20092;-74
2023/12/04 00:05:30;;;;;;;18.70;9.07;;;-4.30;72.40;;;;;;5013669;28;20022;-73
2023/12/04 00:07:55;;;;;;;17.85;7.47;;;-4.30;72.50;;;;;;5013779;28;20075;-74
2023/12/04 00:10:21;;;;;;;18.38;7.38;;;-4.30;72.70;;;;;;4995999;28;20086;-74
2023/12/04 00:12:47;;;;;;;15.10;6.90;;;-4.30;72.50;;;;;;4995826;28;20026;-73
2023/12/04 00:15:12;;;;;;;17.65;7.70;;;-4.20;72.50;;;;;;5013404;28;20065;-73
2023/12/04 00:17:39;;;;;;;18.25;7.60;;;-4.20;72.30;;;;;;4995728;28;20085;-73
2023/12/04 00:20:09;;;;;;;16.45;7.35;;;-4.20;72.20;;;;;;5013768;28;20104;-74
2023/12/04 00:22:36;;;;;;;16.65;7.25;;;-4.20;72.40;;;;;;5013692;28;20033;-75
2023/12/04 00:25:03;;;;;;;14.93;6.70;;;-4.20;72.30;;;;;;5023897;28;20096;-74
2023/12/04 00:27:29;;;;;;;16.30;8.18;;;-4.20;72.30;;;;;;5001361;28;20034;-75
2023/12/04 00:29:54;;;;;;;15.60;7.72;;;-4.30;72.60;;;;;;5017211;28;20022;-74
2023/12/04 00:32:20;;;;;;;16.52;7.85;;;-4.30;72.80;;;;;;5013395;28;20113;-73
2023/12/04 00:34:45;;;;;;;17.02;7.88;;;-4.20;72.90;;;;;;5013368;28;20101;-73
2023/12/04 00:37:11;;;;;;;15.18;7.95;;;-4.20;72.80;;;;;;5013230;28;20526;-75
2023/12/04 00:39:37;;;;;;;10.98;5.72;;;-4.20;72.70;;;;;;5013216;28;20033;-72
2023/12/04 00:42:02;;;;;;;12.82;6.15;;;-4.10;72.80;;;;;;5013440;28;20082;-75
2023/12/04 00:44:28;;;;;;;12.07;5.65;;;-4.00;72.50;;;;;;5013373;28;20030;-75
2023/12/04 00:46:54;;;;;;;9.90;5.63;;;-3.90;72.10;;;;;;5013310;28;20045;-73
2023/12/04 00:49:19;;;;;;;10.85;5.53;;;-3.80;72.00;;;;;;4995632;28;20399;-73
2023/12/04 00:51:45;;;;;;;13.73;6.15;;;-3.80;71.60;;;;;;4995755;28;20025;-73
2023/12/04 00:54:11;;;;;;;14.63;7.07;;;-3.90;71.30;;;;;;5013031;28;20032;-75
2023/12/04 00:56:40;;;;;;;16.38;7.00;;;-3.90;71.40;;;;;;4995408;28;20045;-73
2023/12/04 00:59:08;;;;;;;12.30;6.70;;;-4.00;71.40;;;;;;5013161;28;20029;-76
2023/12/04 01:01:36;;;;;;;13.40;6.60;;;-4.00;71.50;;;;;;5012926;28;20046;-77
2023/12/04 01:04:02;;;;;;;13.40;7.05;;;-4.00;71.60;;;;;;5012810;28;20049;-75
2023/12/04 01:06:27;;;;;;;10.25;5.82;;;-4.00;71.80;;;;;;5013038;28;20018;-75
2023/12/04 01:08:54;;;;;;;14.73;6.72;;;-3.90;72.00;;;;;;4995531;28;20022;-76
2023/12/04 01:11:19;;;;;;;15.05;6.93;;;-3.90;72.00;;;;;;5012989;28;20041;-76
2023/12/04 01:13:45;;;;;;;12.23;6.30;;;-3.90;71.50;;;;;;5013255;28;20025;-75
2023/12/04 01:16:10;;;;;;;13.73;6.65;;;-3.90;71.50;;;;;;5016973;28;20068;-76
2023/12/04 01:18:36;;;;;;;14.73;6.38;;;-3.90;71.50;;;;;;5016811;28;20088;-75
2023/12/04 01:21:02;;;;;;;15.82;7.68;;;-4.00;71.50;;;;;;5016850;28;20049;-76
2023/12/04 01:23:27;;;;;;;14.80;7.78;;;-4.10;71.20;;;;;;5017100;28;20138;-76
2023/12/04 01:25:53;;;;;;;15.65;7.72;;;-4.20;71.60;;;;;;5016830;28;20021;-75
2023/12/04 01:28:19;;;;;;;15.90;8.25;;;-4.30;72.00;;;;;;5016723;28;20545;-74
2023/12/04 01:30:44;;;;;;;17.92;8.43;;;-4.40;72.20;;;;;;5016463;28;20433;-75
2023/12/04 01:33:10;;;;;;;17.52;8.25;;;-4.50;72.50;;;;;;5016716;28;20033;-75
2023/12/04 01:35:36;;;;;;;16.50;7.65;;;-4.60;73.00;;;;;;5016509;28;20375;-75
2023/12/04 01:38:01;;;;;;;19.20;8.50;;;-4.60;74.10;;;;;;5016354;28;20495;-75
2023/12/04 01:40:27;;;;;;;18.27;8.02;;;-4.60;74.10;;;;;;5016552;28;20041;-75
2023/12/04 01:42:53;;;;;;;19.00;8.45;;;-4.60;73.70;;;;;;4998995;28;20025;-75
2023/12/04 01:45:19;;;;;;;17.77;8.45;;;-4.70;74.20;;;;;;5016473;28;20026;-74
2023/12/04 01:47:45;;;;;;;21.10;9.40;;;-4.70;74.60;;;;;;5016555;28;20030;-75
2023/12/04 01:50:11;;;;;;;19.08;8.30;;;-4.80;74.80;;;;;;5016628;28;20026;-75
2023/12/04 01:52:37;;;;;;;24.42;10.23;;;-4.80;75.30;;;;;;5016334;28;20542;-76
2023/12/04 01:55:05;;;;;;;23.58;9.88;;;-4.80;75.50;;;;;;5016648;28;20117;-75
2023/12/04 01:57:30;;;;;;;22.33;9.52;;;-4.90;76.00;;;;;;5015941;28;20088;-77
2023/12/04 01:59:56;;;;;;;19.08;8.63;;;-4.80;76.20;;;;;;5016230;28;20025;-75
2023/12/04 02:02:21;;;;;;;17.95;8.85;;;-4.70;77.00;;;;;;4998745;28;20391;-75
2023/12/04 02:04:47;;;;;;;16.60;8.02;;;-4.70;78.30;;;;;;5016183;28;20024;-76
2023/12/04 02:07:12;;;;;;;18.75;8.35;;;-4.50;77.50;;;;;;4998587;28;20026;-77
2023/12/04 02:09:38;;;;;;;13.32;7.05;;;-4.30;76.90;;;;;;5016152;28;20018;-77
2023/12/04 02:12:04;;;;;;;13.77;7.22;;;-4.20;76.40;;;;;;5015998;28;20022;-78
2023/12/04 02:14:30;;;;;;;14.75;7.13;;;-4.10;76.20;;;;;;4998304;28;20029;-78
2023/12/04 02:16:58;;;;;;;15.93;7.15;;;-4.00;76.00;;;;;;5016024;28;20048;-77
2023/12/04 02:19:23;;;;;;;16.55;8.30;;;-3.90;75.50;;;;;;5016142;28;20025;-75
2023/12/04 02:21:49;;;;;;;14.63;7.82;;;-3.80;75.20;;;;;;5016043;28;20363;-77
2023/12/04 02:24:15;;;;;;;14.13;7.20;;;-3.70;74.80;;;;;;5015851;28;20033;-77
2023/12/04 02:26:52;;;;;;;15.00;7.60;;;-3.70;74.10;;;;;;5015050;28;20497;-79
2023/12/04 02:29:24;;;;;;;12.20;6.57;;;-3.60;73.60;;;;;;4998149;28;20115;-78
2023/12/04 02:31:53;;;;;;;15.88;8.00;;;-3.60;73.40;;;;;;5015664;28;20037;-78
2023/12/04 02:34:20;;;;;;;13.80;6.78;;;-3.70;73.10;;;;;;5015457;28;20026;-78
2023/12/04 02:36:46;;;;;;;15.82;8.32;;;-3.70;73.20;;;;;;5015513;28;20080;-76
2023/12/04 02:39:12;;;;;;;17.67;8.45;;;-3.70;73.10;;;;;;5015517;28;20437;-75
2023/12/04 02:41:38;;;;;;;15.88;7.57;;;-3.90;72.90;;;;;;5015382;28;20026;-74
2023/12/04 02:44:03;;;;;;;16.60;8.25;;;-4.00;73.40;;;;;;5015551;28;20044;-75
2023/12/04 02:46:29;;;;;;;18.67;8.48;;;-4.10;73.40;;;;;;5015322;28;20109;-74
2023/12/04 02:48:54;;;;;;;18.25;8.20;;;-4.30;74.10;;;;;;5015229;28;20038;-75
2023/12/04 02:51:20;;;;;;;20.83;9.77;;;-4.50;74.50;;;;;;5015419;28;20030;-76
2023/12/04 02:53:45;;;;;;;13.55;6.88;;;-4.70;75.40;;;;;;5015126;28;20355;-75
2023/12/04 02:56:11;;;;;;;20.63;8.05;;;-4.80;75.50;;;;;;5015124;28;20104;-76
2023/12/04 02:58:36;;;;;;;17.88;7.93;;;-4.80;75.60;;;;;;4997344;28;20112;-76
2023/12/04 03:01:02;;;;;;;18.58;8.07;;;-4.70;76.10;;;;;;5015233;28;20433;-75
2023/12/04 03:03:28;;;;;;;20.77;7.25;;;-4.70;76.00;;;;;;4997594;28;20033;-76
2023/12/04 03:05:53;;;;;;;15.57;7.47;;;-4.60;75.80;;;;;;5016620;28;20018;-77
2023/12/04 03:08:19;;;;;;;15.27;8.18;;;-4.50;75.50;;;;;;5031344;28;20021;-77
2023/12/04 03:10:44;;;;;;;16.40;8.10;;;-4.40;75.10;;;;;;5038765;28;20041;-76
2023/12/04 03:13:10;;;;;;;14.82;7.03;;;-4.40;74.80;;;;;;5033712;28;20101;-76
2023/12/04 03:15:35;;;;;;;14.38;7.00;;;-4.40;74.90;;;;;;5024838;28;20112;-76
2023/12/04 03:18:01;;;;;;;13.82;6.97;;;-4.30;75.00;;;;;;5019725;28;20034;-76
2023/12/04 03:20:26;;;;;;;13.60;6.32;;;-4.20;75.60;;;;;;5014878;28;20025;-77
2023/12/04 03:22:52;;;;;;;12.80;6.40;;;-4.00;75.40;;;;;;4997225;28;20030;-77
2023/12/04 03:25:18;;;;;;;13.88;6.75;;;-3.80;74.60;;;;;;5014860;28;20053;-77
2023/12/04 03:27:43;;;;;;;15.07;7.03;;;-3.70;73.30;;;;;;5014602;28;20049;-76
2023/12/04 03:30:09;;;;;;;12.77;6.55;;;-3.60;72.50;;;;;;5014852;28;20036;-77
2023/12/04 03:32:35;;;;;;;15.20;8.15;;;-3.50;72.10;;;;;;5014632;28;20029;-77
2023/12/04 03:35:01;;;;;;;14.80;7.03;;;-3.50;71.60;;;;;;5014414;28;20041;-76
2023/12/04 03:37:26;;;;;;;14.55;6.90;;;-3.50;71.30;;;;;;5014334;28;20030;-76
2023/12/04 03:39:52;;;;;;;16.10;7.70;;;-3.50;71.50;;;;;;5014367;28;20040;-77
2023/12/04 03:42:17;;;;;;;15.85;7.80;;;-3.50;71.20;;;;;;5014550;28;20026;-77
2023/12/04 03:44:43;;;;;;;17.33;7.85;;;-3.60;71.20;;;;;;5014739;28;20026;-76
2023/12/04 03:47:08;;;;;;;16.42;7.55;;;-3.70;71.20;;;;;;5014393;28;20064;-76
2023/12/04 03:49:34;;;;;;;20.17;8.65;;;-3.80;71.10;;;;;;5014547;28;20030;-76
2023/12/04 03:51:59;;;;;;;15.40;7.35;;;-3.70;70.70;;;;;;4996846;28;20022;-75
2023/12/04 03:54:25;;;;;;;16.90;8.70;;;-3.80;70.50;;;;;;5014018;28;20528;-75
2023/12/04 03:56:51;;;;;;;17.20;7.75;;;-3.90;71.00;;;;;;5014008;28;20042;-76
2023/12/04 03:59:16;;;;;;;17.17;8.82;;;-3.90;71.20;;;;;;5014111;28;20560;-76
2023/12/04 04:01:42;;;;;;;19.45;8.43;;;-3.90;71.50;;;;;;5014054;28;20026;-76
2023/12/04 04:04:07;;;;;;;20.38;8.73;;;-3.90;71.50;;;;;;5014297;28;20026;-76
2023/12/04 04:06:33;;;;;;;15.85;8.10;;;-3.90;71.10;;;;;;5014191;28;20049;-76
2023/12/04 04:08:58;;;;;;;17.42;8.43;;;-3.90;71.00;;;;;;4996255;28;20407;-75
2023/12/04 04:11:24;;;;;;;16.10;7.65;;;-3.90;70.90;;;;;;5013885;28;20029;-76
2023/12/04 04:13:49;;;;;;;14.38;8.18;;;-3.90;71.00;;;;;;5013825;28;20108;-75
2023/12/04 04:16:16;;;;;;;14.10;7.50;;;-3.90;71.10;;;;;;5013601;28;20549;-75
2023/12/04 04:18:43;;;;;;;15.55;7.63;;;-3.90;71.20;;;;;;5013555;28;20549;-75
2023/12/04 04:21:09;;;;;;;13.98;7.18;;;-3.80;71.00;;;;;;5013771;28;20080;-76
2023/12/04 04:23:34;;;;;;;15.68;7.10;;;-3.80;71.10;;;;;;5013610;28;20112;-76
2023/12/04 04:26:00;;;;;;;14.57;7.65;;;-3.70;71.30;;;;;;5013902;28;20060;-75
2023/12/04 04:28:25;;;;;;;17.00;8.05;;;-3.70;71.10;;;;;;5013405;28;20018;-76
2023/12/04 04:30:51;;;;;;;16.33;8.32;;;-3.60;70.90;;;;;;5013589;28;20037;-77
2023/12/04 04:33:17;;;;;;;16.13;8.00;;;-3.50;70.80;;;;;;5013578;28;20018;-75
2023/12/04 04:35:43;;;;;;;16.02;7.22;;;-3.40;70.80;;;;;;4995810;28;20386;-75
2023/12/04 04:38:09;;;;;;;15.35;7.18;;;-3.30;70.90;;;;;;5015726;28;20030;-76
2023/12/04 04:40:34;;;;;;;15.40;7.45;;;-3.20;70.50;;;;;;5015722;28;20033;-74
2023/12/04 04:43:00;;;;;;;15.30;7.35;;;-3.10;69.90;;;;;;5013477;28;20068;-75
2023/12/04 04:45:25;;;;;;;12.65;6.57;;;-3.20;70.20;;;;;;5013133;28;20049;-76
2023/12/04 04:47:51;;;;;;;14.07;7.13;;;-3.10;70.80;;;;;;5013282;28;20034;-76
2023/12/04 04:50:16;;;;;;;12.18;6.65;;;-3.10;71.00;;;;;;5012794;28;20069;-76
2023/12/04 04:52:42;;;;;;;13.93;7.63;;;-3.10;70.90;;;;;;5013221;28;20022;-76
2023/12/04 04:55:08;;;;;;;23.33;12.93;;;-3.00;70.60;;;;;;5013205;28;20555;-75
2023/12/04 04:57:33;;;;;;;14.63;8.43;;;-2.90;70.70;;;;;;4995667;28;20046;-77
2023/12/04 04:59:59;;;;;;;15.65;8.35;;;-2.90;70.90;;;;;;5013181;28;20557;-78
2023/12/04 05:02:24;;;;;;;15.15;7.85;;;-2.80;70.90;;;;;;4995755;28;20471;-79
2023/12/04 05:04:50;;;;;;;14.68;6.95;;;-2.70;71.10;;;;;;4995679;28;20409;-79
2023/12/04 05:07:15;;;;;;;11.13;5.78;;;-2.70;71.00;;;;;;5013175;28;20435;-79
2023/12/04 05:09:41;;;;;;;10.13;5.28;;;-2.70;70.90;;;;;;4995380;28;20033;-79
2023/12/04 05:12:07;;;;;;;9.73;5.30;;;-2.60;70.80;;;;;;5013159;28;20096;-79
2023/12/04 05:14:32;;;;;;;13.20;5.95;;;-2.50;70.30;;;;;;5013137;28;20041;-79
2023/12/04 05:16:58;;;;;;;9.75;5.43;;;-2.40;70.20;;;;;;4995431;28;20386;-79
2023/12/04 05:19:23;;;;;;;11.32;5.68;;;-2.40;70.00;;;;;;4995436;28;20062;-78
2023/12/04 05:21:49;;;;;;;8.48;4.95;;;-2.30;70.00;;;;;;5013065;28;20022;-78
2023/12/04 05:24:15;;;;;;;12.45;5.85;;;-2.20;70.10;;;;;;5013125;28;20034;-80
2023/12/04 05:26:40;;;;;;;13.63;6.32;;;-2.20;70.10;;;;;;5012978;28;20030;-77
2023/12/04 05:29:06;;;;;;;15.63;7.72;;;-2.20;69.60;;;;;;5012864;28;20037;-76
2023/12/04 05:31:31;;;;;;;15.60;7.32;;;-2.20;69.10;;;;;;5012980;28;20391;-76
2023/12/04 05:33:57;;;;;;;13.95;7.15;;;-2.20;69.40;;;;;;5013027;28;20061;-77
2023/12/04 05:36:22;;;;;;;13.57;6.32;;;-2.10;69.80;;;;;;5012909;28;20029;-77
2023/12/04 05:38:48;;;;;;;10.52;5.72;;;-2.10;70.70;;;;;;5013091;28;20034;-77
2023/12/04 05:41:13;;;;;;;11.00;6.82;;;-2.10;69.20;;;;;;4995283;28;20537;-77
2023/12/04 05:43:39;;;;;;;9.65;6.18;;;-2.00;68.50;;;;;;5012806;28;20117;-77
2023/12/04 05:46:04;;;;;;;13.73;6.55;;;-2.00;68.30;;;;;;5012873;28;20030;-78
2023/12/04 05:48:30;;;;;;;11.00;6.07;;;-2.00;67.70;;;;;;5012920;28;20076;-77
2023/12/04 05:50:55;;;;;;;11.35;6.00;;;-2.00;67.60;;;;;;4995668;28;20072;-75
2023/12/04 05:53:21;;;;;;;13.05;8.25;;;-1.90;67.80;;;;;;5012830;28;20026;-77
2023/12/04 05:55:46;;;;;;;11.23;6.47;;;-1.90;67.70;;;;;;5012951;28;20084;-76
2023/12/04 05:58:12;;;;;;;15.20;8.00;;;-1.90;67.90;;;;;;5012374;28;20050;-77
2023/12/04 06:00:37;;;;;;;12.20;7.38;;;-1.90;68.10;;;;;;5012659;28;20437;-76
2023/12/04 06:03:03;;;;;;;12.68;7.13;;;-1.90;68.10;;;;;;5015923;28;20061;-75
2023/12/04 06:05:28;;;;;;;12.38;6.95;;;-1.90;68.10;;;;;;5015986;28;20078;-77
2023/12/04 06:07:54;;;;;;;11.95;6.32;;;-1.90;68.20;;;;;;5016039;28;20483;-77
2023/12/04 06:10:19;;;;;;;9.77;4.97;;;-1.90;68.20;;;;;;5015569;28;20026;-77
2023/12/04 06:12:45;;;;;;;7.55;4.55;;;-1.90;68.40;;;;;;5015716;28;20076;-77
2023/12/04 06:15:10;;;;;;;8.98;5.78;;;-1.80;68.60;;;;;;5015432;28;20030;-77
2023/12/04 06:17:37;;;;;;;11.32;6.32;;;-1.80;68.30;;;;;;5016182;28;20049;-77
2023/12/04 06:20:03;;;;;;;10.43;5.32;;;-1.80;68.20;;;;;;5015741;28;20105;-77
2023/12/04 06:22:28;;;;;;;11.43;5.70;;;-1.80;67.90;;;;;;5015824;28;20447;-76
2023/12/04 06:24:54;;;;;;;13.43;7.15;;;-1.80;67.80;;;;;;5015688;28;20231;-77
2023/12/04 06:27:20;;;;;;;12.27;7.15;;;-1.80;67.60;;;;;;5015796;28;20026;-76
2023/12/04 06:29:47;;;;;;;11.95;6.90;;;-1.80;67.50;;;;;;5015862;28;20022;-76
2023/12/04 06:32:13;;;;;;;14.68;7.68;;;-1.90;67.70;;;;;;5015534;28;20540;-76
2023/12/04 06:34:39;;;;;;;12.95;6.72;;;-1.90;67.90;;;;;;5015447;28;20054;-75
2023/12/04 06:37:10;;;;;;;17.65;7.20;;;-2.00;67.70;;;;;;5015393;28;20450;-77
2023/12/04 06:39:37;;;;;;;11.98;6.97;;;-2.00;67.90;;;;;;4998133;28;20080;-77
2023/12/04 06:42:04;;;;;;;14.43;7.30;;;-2.10;68.30;;;;;;4997916;28;20022;-79
2023/12/04 06:44:30;;;;;;;15.60;7.65;;;-2.10;68.60;;;;;;5015437;28;20443;-79
2023/12/04 06:46:58;;;;;;;16.83;8.93;;;-2.20;68.50;;;;;;4998050;28;20065;-79
2023/12/04 06:49:27;;;;;;;14.50;7.57;;;-2.30;68.30;;;;;;5016222;28;20408;-79
2023/12/04 06:51:52;;;;;;;14.55;6.88;;;-2.40;68.70;;;;;;5015451;28;20065;-78
2023/12/04 06:54:18;;;;;;;12.20;7.13;;;-2.40;69.30;;;;;;5015569;28;20450;-78
2023/12/04 06:56:44;;;;;;;12.82;6.90;;;-2.50;69.30;;;;;;5015011;28;20133;-80
2023/12/04 06:59:10;;;;;;;17.27;7.50;;;-2.50;70.20;;;;;;5015235;28;20030;-75
2023/12/04 07:01:35;;;;;;;17.58;9.18;;;-2.40;74.80;;;;;;5014772;28;20148;-74
2023/12/04 07:04:01;;;;;;;18.70;9.70;;;-1.90;80.30;;;;;;5014828;28;20168;-71
2023/12/04 07:06:26;;;;;;;16.92;9.43;;;-1.40;75.60;;;;;;5015007;28;20025;-72
2023/12/04 07:08:52;;;;;;;14.75;8.68;;;-1.40;70.30;;;;;;5014944;28;20368;-72
2023/12/04 07:11:17;;;;;;;24.55;11.80;;;-1.40;68.40;;;;;;5014700;28;20041;-74
2023/12/04 07:13:43;;;;;;;18.25;8.48;;;-1.80;68.40;;;;;;5014334;28;20407;-72
2023/12/04 07:16:09;;;;;;;18.48;8.70;;;-1.90;70.40;;;;;;5014469;28;20455;-70
2023/12/04 07:18:34;;;;;;;11.82;6.88;;;-1.60;71.40;;;;;;4996850;28;20046;-73
2023/12/04 07:21:00;;;;;;;15.75;7.22;;;-1.50;71.90;;;;;;5014506;28;20032;-74
2023/12/04 07:23:26;;;;;;;11.75;6.60;;;-1.50;72.80;;;;;;5014410;28;20030;-73
2023/12/04 07:25:52;;;;;;;14.35;7.57;;;-1.30;71.50;;;;;;5014479;28;20026;-73
2023/12/04 07:28:18;;;;;;;18.67;10.32;;;-1.30;69.00;;;;;;5014979;28;20018;-72
2023/12/04 07:30:43;;;;;;;20.83;10.48;;;-1.30;67.80;;;;;;5014473;28;20502;-72
2023/12/04 07:33:09;;;;;;;18.83;11.27;;;-1.20;67.30;;;;;;5014422;28;20045;-79
2023/12/04 07:35:34;;;;;;;20.63;10.82;;;-0.90;66.70;;;;;;5014881;28;20033;-76
2023/12/04 07:38:00;;;;;;;18.90;10.40;;;-1.20;65.00;;;;;;5014083;28;20467;-75
2023/12/04 07:40:25;;;;;;;19.08;9.65;;;-1.50;66.30;;;;;;5014166;28;20105;-77
2023/12/04 07:42:51;;;;;;;16.98;9.48;;;-1.80;67.20;;;;;;5014209;28;20052;-77
2023/12/04 07:45:17;;;;;;;16.42;9.32;;;-2.00;68.90;;;;;;5014294;28;20430;-76
2023/12/04 07:47:42;;;;;;;17.83;8.45;;;-2.10;70.10;;;;;;5014151;28;20490;-76
2023/12/04 07:50:08;;;;;;;15.23;7.90;;;-2.10;73.70;;;;;;5014198;28;20112;-77
2023/12/04 07:52:33;;;;;;;15.93;7.35;;;-2.20;75.70;;;;;;4996820;28;20116;-77
2023/12/04 07:54:59;;;;;;;15.52;8.77;;;-2.30;76.90;;;;;;4996973;28;20415;-77
2023/12/04 07:57:24;;;;;;;16.40;8.80;;;-2.20;76.70;;;;;;5013866;28;20514;-77
2023/12/04 07:59:50;;;;;;;23.95;9.40;;;-2.10;76.70;;;;;;5013892;28;20113;-77
2023/12/04 08:02:15;;;;;;;24.27;10.35;;;-2.10;76.70;;;;;;5005756;28;20537;-77
2023/12/04 08:04:41;;;;;;;22.10;11.02;;;-2.00;76.50;;;;;;5013915;28;20041;-77
2023/12/04 08:07:06;;;;;;;18.50;9.93;;;-1.90;76.50;;;;;;5013780;28;20061;-76
2023/12/04 08:09:32;;;;;;;18.17;9.68;;;-1.80;75.20;;;;;;5013754;28;20045;-77
2023/12/04 08:11:58;;;;;;;19.00;9.82;;;-1.80;73.10;;;;;;5013701;28;20022;-78
2023/12/04 08:14:24;;;;;;;17.88;9.63;;;-1.80;72.40;;;;;;5013901;28;20386;-77
2023/12/04 08:16:49;;;;;;;20.38;10.50;;;-1.70;72.70;;;;;;5013492;28;20482;-77
2023/12/04 08:19:15;;;;;;;20.65;10.45;;;-1.80;72.60;;;;;;5013719;28;20025;-76
2023/12/04 08:21:41;;;;;;;20.70;10.32;;;-1.90;71.40;;;;;;5013505;28;20056;-75
2023/12/04 08:24:06;;;;;;;19.73;10.27;;;-1.90;71.50;;;;;;5012890;28;20503;-77
2023/12/04 08:26:32;;;;;;;18.50;10.18;;;-2.00;71.10;;;;;;4995907;28;20018;-74
2023/12/04 08:28:57;;;;;;;17.30;9.18;;;-2.10;71.50;;;;;;5013484;28;20030;-75
2023/12/04 08:31:23;;;;;;;20.98;9.70;;;-2.10;72.00;;;;;;4997082;28;20030;-78
2023/12/04 08:33:48;;;;;;;19.52;9.65;;;-2.20;71.50;;;;;;4996089;28;20029;-77
2023/12/04 08:36:15;;;;;;;18.15;9.00;;;-2.20;72.20;;;;;;5014257;28;20034;-82
2023/12/04 08:38:41;;;;;;;22.05;9.55;;;-2.20;72.80;;;;;;5014192;28;20441;-82
2023/12/04 08:41:06;;;;;;;22.27;10.07;;;-2.20;73.20;;;;;;5013994;28;20022;-83
2023/12/04 08:43:32;;;;;;;21.35;9.75;;;-2.30;73.10;;;;;;5017802;28;20030;-79
2023/12/04 08:45:58;;;;;;;21.60;9.75;;;-2.20;73.30;;;;;;5013597;28;20018;-76
2023/12/04 08:48:24;;;;;;;21.42;9.75;;;-2.10;73.50;;;;;;5013984;28;20064;-79
2023/12/04 08:50:49;;;;;;;21.98;9.43;;;-2.00;73.90;;;;;;5013352;28;20022;-74
2023/12/04 08:53:15;;;;;;;21.42;11.50;;;-1.80;77.50;;;;;;5013336;28;20552;-76
2023/12/04 08:55:41;;;;;;;20.58;10.55;;;-1.40;77.30;;;;;;4995550;28;20026;-77
2023/12/04 08:58:06;;;;;;;17.52;10.50;;;-1.30;72.50;;;;;;5013200;28;20092;-79
2023/12/04 09:00:32;;;;;;;19.38;10.48;;;-1.40;72.70;;;;;;5015611;28;20026;-77
2023/12/04 09:02:58;;;;;;;17.85;10.18;;;-1.00;71.80;;;;;;5013809;28;20033;-77
2023/12/04 09:05:23;;;;;;;20.02;11.25;;;-1.00;70.10;;;;;;5017953;28;20014;-76
2023/12/04 09:07:49;;;;;;;19.42;9.13;;;-1.10;69.40;;;;;;5013493;28;20104;-76
2023/12/04 09:10:15;;;;;;;18.42;8.77;;;-1.20;70.90;;;;;;4995231;28;20030;-81
2023/12/04 09:12:41;;;;;;;22.58;10.73;;;-1.10;73.00;;;;;;5014248;28;20060;-82
2023/12/04 09:15:06;;;;;;;31.35;13.60;;;-1.20;75.60;;;;;;5013720;28;20034;-80
2023/12/04 09:17:33;;;;;;;33.30;14.95;;;-1.10;77.30;;;;;;5013564;28;20046;-80
2023/12/04 09:19:58;;;;;;;33.40;15.63;;;-1.10;77.20;;;;;;5013588;28;20053;-82
2023/12/04 09:22:24;;;;;;;20.25;11.40;;;-1.10;77.20;;;;;;5013696;28;20041;-80
2023/12/04 09:24:49;;;;;;;23.30;11.75;;;-1.10;75.00;;;;;;5012922;28;20022;-77
2023/12/04 09:27:16;;;;;;;21.42;10.77;;;-1.20;71.80;;;;;;5013177;28;20081;-79
2023/12/04 09:29:42;;;;;;;21.67;12.68;;;-1.40;71.70;;;;;;5013366;28;20375;-78
2023/12/04 09:32:09;;;;;;;21.50;12.20;;;-1.40;72.80;;;;;;5013614;28;20113;-77
2023/12/04 09:34:35;;;;;;;21.95;11.32;;;-1.50;73.60;;;;;;5013720;28;20026;-78
2023/12/04 09:37:01;;;;;;;24.38;11.48;;;-1.40;74.20;;;;;;5016368;28;20041;-78
2023/12/04 09:39:26;;;;;;;19.08;10.93;;;-1.30;73.40;;;;;;5016569;28;20057;-77
2023/12/04 09:41:52;;;;;;;14.85;8.25;;;-1.40;73.50;;;;;;5016633;28;20109;-73
2023/12/04 09:44:19;;;;;;;18.60;9.88;;;-1.30;74.50;;;;;;5016243;28;20090;-76
2023/12/04 09:46:45;;;;;;;17.45;9.45;;;-1.20;74.50;;;;;;5016402;28;20026;-76
2023/12/04 09:49:11;;;;;;;16.95;9.15;;;-1.00;74.60;;;;;;5016429;28;20119;-77
2023/12/04 09:51:37;;;;;;;15.70;8.35;;;-0.90;75.00;;;;;;5016234;28;20538;-73
2023/12/04 09:54:04;;;;;;;14.45;7.50;;;-0.80;77.90;;;;;;5016170;28;20467;-79
2023/12/04 09:56:31;;;;;;;17.73;9.05;;;-0.70;77.90;;;;;;5015988;28;20087;-74
2023/12/04 09:58:59;;;;;;;17.45;9.25;;;-0.50;77.70;;;;;;5016012;28;20541;-78
2023/12/04 10:01:26;;;;;;;17.10;10.23;;;-0.30;77.50;;;;;;5016742;28;20030;-76
2023/12/04 10:03:51;;;;;;;15.68;8.55;;;-0.20;76.70;;;;;;5016271;28;20423;-77
2023/12/04 10:06:17;;;;;;;18.70;8.63;;;-0.10;76.60;;;;;;4982906;28;20080;-79
2023/12/04 10:08:46;;;;;;;19.48;10.32;;;-0.10;76.00;;;;;;5000671;28;20030;-79
2023/12/04 10:11:12;;;;;;;21.98;11.50;;;0.00;75.50;;;;;;5019080;28;20037;-77
2023/12/04 10:13:40;;;;;;;21.17;10.25;;;0.10;75.50;;;;;;5018422;28;20034;-78
2023/12/04 10:16:06;;;;;;;19.33;9.85;;;0.10;74.70;;;;;;5016043;28;20018;-77
2023/12/04 10:18:32;;;;;;;20.23;10.80;;;0.10;73.40;;;;;;5015511;28;20087;-77
2023/12/04 10:20:58;;;;;;;16.63;10.60;;;0.00;73.00;;;;;;5015270;28;20488;-78
2023/12/04 10:23:37;;;;;;;19.77;11.90;;;0.00;73.40;;;;;;5015720;28;20549;-81
2023/12/04 10:26:04;;;;;;;20.58;10.85;;;-0.10;72.70;;;;;;4997906;28;20506;-77
2023/12/04 10:28:29;;;;;;;22.85;11.32;;;-0.10;73.40;;;;;;5016120;28;20054;-78
2023/12/04 10:30:55;;;;;;;20.80;10.52;;;-0.20;74.00;;;;;;4997977;28;20157;-78
2023/12/04 10:33:25;;;;;;;18.98;10.45;;;-0.20;74.00;;;;;;5015582;28;20033;-80
2023/12/04 10:35:51;;;;;;;16.80;9.93;;;-0.20;74.00;;;;;;5015538;28;20024;-80
2023/12/04 10:38:18;;;;;;;16.35;9.40;;;-0.20;74.00;;;;;;4997766;28;20033;-79
2023/12/04 10:40:44;;;;;;;17.42;10.18;;;-0.20;73.50;;;;;;5015672;28;20042;-78
2023/12/04 10:43:18;;;;;;;22.08;11.90;;;-0.20;73.30;;;;;;5015719;28;20022;-79
2023/12/04 10:45:45;;;;;;;19.73;11.45;;;-0.30;73.30;;;;;;5015471;28;20506;-77
2023/12/04 10:48:12;;;;;;;19.55;10.77;;;-0.30;73.90;;;;;;5014343;28;20091;-80
2023/12/04 10:50:48;;;;;;;20.95;11.07;;;-0.20;74.20;;;;;;5015458;28;20026;-81
2023/12/04 10:53:15;;;;;;;21.95;10.80;;;-0.20;74.50;;;;;;5015142;28;20439;-78
2023/12/04 10:55:42;;;;;;;21.02;10.02;;;-0.10;74.00;;;;;;4997793;28;20018;-80
2023/12/04 10:58:12;;;;;;;18.92;10.30;;;-0.10;73.90;;;;;;5014715;28;20520;-79
2023/12/04 11:00:50;;;;;;;15.50;9.27;;;0.00;73.60;;;;;;5015028;28;20067;-79
2023/12/04 11:03:37;;;;;;;18.35;11.15;;;0.00;73.50;;;;;;5015447;28;20174;-80
2023/12/04 11:06:07;;;;;;;17.05;11.23;;;0.00;73.80;;;;;;5015085;28;20044;-80
2023/12/04 11:08:36;;;;;;;18.80;11.48;;;0.20;74.20;;;;;;5015005;28;20022;-80
2023/12/04 11:11:03;;;;;;;16.33;10.38;;;0.30;74.70;;;;;;5014841;28;20021;-79
2023/12/04 11:13:34;;;;;;;17.52;10.35;;;0.30;74.80;;;;;;5014704;28;20048;-79
2023/12/04 11:16:05;;;;;;;20.13;11.98;;;0.50;75.00;;;;;;5014417;28;20499;-80
2023/12/04 11:18:37;;;;;;;22.23;11.68;;;0.50;75.20;;;;;;5014372;28;20057;-79
2023/12/04 11:21:10;;;;;;;22.27;11.35;;;0.70;75.40;;;;;;5013939;28;20382;-80
2023/12/04 11:23:37;;;;;;;22.67;11.93;;;0.80;75.00;;;;;;5014651;28;20348;-79
2023/12/04 11:26:05;;;;;;;20.35;12.50;;;0.90;74.50;;;;;;5014742;28;20495;-79
2023/12/04 11:28:31;;;;;;;22.85;13.07;;;1.00;73.60;;;;;;5014627;28;20463;-79
2023/12/04 11:30:58;;;;;;;19.05;12.25;;;0.90;73.60;;;;;;5014330;28;20022;-80
2023/12/04 11:33:24;;;;;;;19.77;12.07;;;1.00;73.80;;;;;;4996894;28;20034;-79
2023/12/04 11:35:50;;;;;;;16.05;9.73;;;1.10;73.30;;;;;;5014555;28;20064;-80
2023/12/04 11:38:19;;;;;;;18.13;9.95;;;1.20;72.60;;;;;;5006728;28;20042;-79
2023/12/04 11:40:46;;;;;;;18.23;10.75;;;1.20;72.60;;;;;;5017438;28;20205;-79
2023/12/04 11:43:25;;;;;;;17.25;10.25;;;1.20;73.20;;;;;;5015243;28;20475;-78
2023/12/04 11:45:51;;;;;;;22.67;12.15;;;1.20;73.80;;;;;;5014175;28;20570;-78
2023/12/04 11:48:21;;;;;;;21.30;11.43;;;1.30;74.10;;;;;;5013999;28;20065;-79
2023/12/04 11:50:48;;;;;;;24.42;10.82;;;1.40;74.30;;;;;;5014123;28;20046;-82
2023/12/04 11:53:14;;;;;;;15.52;9.18;;;1.50;74.20;;;;;;4996444;28;20034;-81
2023/12/04 11:55:44;;;;;;;22.67;11.73;;;1.60;74.10;;;;;;4996707;28;20018;-81
2023/12/04 11:58:11;;;;;;;21.13;13.35;;;1.60;73.20;;;;;;5013911;28;20089;-78
2023/12/04 12:00:37;;;;;;;23.15;13.80;;;1.70;73.10;;;;;;5014057;28;20025;-80
2023/12/04 12:03:06;;;;;;;21.80;13.32;;;1.70;73.20;;;;;;4996199;28;20034;-82
2023/12/04 12:05:33;;;;;;;24.05;13.75;;;1.70;72.70;;;;;;5016591;28;20029;-81
2023/12/04 12:08:06;;;;;;;20.33;12.18;;;1.60;73.30;;;;;;5015636;28;20033;-81
2023/12/04 12:10:33;;;;;;;19.80;11.30;;;1.60;74.30;;;;;;5014217;28;20022;-82
2023/12/04 12:12:59;;;;;;;17.83;12.18;;;1.70;75.00;;;;;;4996260;28;20026;-80
2023/12/04 12:15:25;;;;;;;18.30;11.60;;;1.70;75.10;;;;;;4996420;28;20438;-77
2023/12/04 12:17:51;;;;;;;17.17;10.05;;;1.80;74.90;;;;;;5013630;28;20037;-78
2023/12/04 12:20:17;;;;;;;16.58;9.75;;;1.90;74.80;;;;;;5013690;28;20036;-81
2023/12/04 12:22:46;;;;;;;18.77;10.45;;;1.90;73.70;;;;;;5014257;28;20426;-78
2023/12/04 12:25:12;;;;;;;16.70;10.60;;;2.00;73.10;;;;;;5013795;28;20026;-81
2023/12/04 12:27:38;;;;;;;17.15;9.60;;;2.00;72.80;;;;;;5013738;28;20065;-77
2023/12/04 12:30:04;;;;;;;14.68;9.13;;;2.10;73.70;;;;;;5013453;28;20030;-71